Ypres City Race

Local: Ypres
( - Bélgica)
Organização: TROL
Homepage: visitar página
Calendário: City Race Euro Tour Limites de Inscrição:
(com desconto) 31-05-2018 00:00:00
(escalões competição) 31-05-2018 00:00:00
(inscrições online) 31-05-2018 12:00:00
(cancelar esc. competição) 31-05-2018 23:59:59
(cancelar esc. abertos) 31-05-2018 12:00:00
Supervisor:
Data: 01-07-18
Etapas (1):
01-07-2018 (Ypres City Race - City Race Euro Tour)
Descrição Carregado em Opções
Etapa 1 - 01-07-2018 - Ypres City Race (Individual) 2018-08-05 08:54:43          
 
Resultados da Etapa 1 - 01-07-2018 - Ypres City Race (Individual)
Clube: Escalão: Percurso: Ver    
Listar todos resultados e agrupar por:
TROL - POR [4] (62)
Cl. Nome Atleta Lic. SI Escalão Tempo Min/Km Pontos
3 Yannick MICHIELS M ELITE 38:29 0:00 99.09
22 Michael VAN BAELEN M ELITE 46:55 0:00 81.27
34 Simon KREKELS M ELITE 50:51 0:00 74.99
45 Jan CAPPAERT M ELITE 58:51 0:00 64.79
49 Toon PEETERS M ELITE 1:03:56 0:00 59.64
56 Dieter COEN M ELITE 1:08:40 0:00 55.53
64 Edouard ROGGE M ELITE 1:23:06 0:00 45.88
35 Julien VAN BOSCH M SUPERVET 58:26 0:00 63.14
40 William NICQUE M SUPERVET 1:04:31 0:00 57.19
Paul BOLSENS M SUPERVET mp 0:00
22 André PEETERS M ULTRAVET 56:46 0:00 75.45
28 Marc CEULEMANS M ULTRAVET 1:01:51 0:00 69.25
31 Eddie DESMEDT M ULTRAVET 1:06:44 0:00 64.18
39 Oswald VAN BOCKSTAL M ULTRAVET 1:17:29 0:00 55.28
Georges VONCK M ULTRAVET mp 0:00
Mike IN 'T GROEN M ULTRAVET mp 0:00
19 Rudy ROOMAN M VET 54:35 0:00 82.25
26 Kurt SMET M VET 58:29 0:00 76.77
27 Andre DE VEIRMAN M VET 58:52 0:00 76.27
28 Tom KREKELS M VET 58:56 0:00 76.18
29 Michel VAN LOON M VET 59:09 0:00 75.90
36 Bob DE CLERCQ M VET 1:01:14 0:00 73.32
48 Bjorn VANNESTE M VET 1:05:19 0:00 68.74
54 Yves DE MITS M VET 1:09:16 0:00 64.82
55 Peter KELCHTERMANS M VET 1:10:13 0:00 63.94
57 Dirk GENAR M VET 1:11:43 0:00 62.60
61 Paul CROTHERS M VET 1:14:43 0:00 60.09
62 Boudewijn VAN AUTREVE M VET 1:15:09 0:00 59.74
70 Sven DE NEEF M VET 1:45:48 0:00 42.43
Donald VAN BOVEN M VET mp 0:00
4 Stan DE CLERCQ M YOUTH -12 23:55 0:00 79.09
6 Viek DE MITS M YOUTH -12 28:52 0:00 65.53
9 Thor DE MITS M YOUTH -12 36:05 0:00 52.42
10 Nand BOLSENS M YOUTH -12 36:59 0:00 51.14
14 Daan COOLS M YOUTH -12 52:30 0:01 36.03
5 Joris SMET M YOUTH -16 31:09 0:00 85.01
6 Rune DE CLERCQ M YOUTH -16 31:42 0:00 83.54
11 Wolf DE MITS M YOUTH -16 38:31 0:00 68.75
12 Louis KREKELS M YOUTH -16 48:38 0:00 54.45
8 Anna SERRALLONGA FEDO 17001717 W ELITE 39:32 0:00 93.50
18 Meri CHKRIPESKA W ELITE 52:55 0:00 69.85
22 Vanessa VAN BREEDAM W ELITE 55:35 0:00 66.50
27 Silke VAN ROOY W ELITE 1:01:03 0:00 60.55
28 Ellen BOURGONJON W ELITE 1:01:56 0:00 59.68
31 Renske GOOSSENS W ELITE 1:02:48 0:00 58.86
32 Sietske PEETERS W ELITE 1:04:41 0:00 57.15
1 Linda VERBRAKEN W SUPERVET 34:18 0:00 100
28 Lily-Anne COLE W SUPERVET 1:00:36 0:00 56.60
3 Monica ROELING W ULTRAVET 37:09 0:00 91.16
9 Lieve GEENS W ULTRAVET 43:23 0:00 78.06
6 Hilde BREESCH W VET 48:40 0:00 87.22
9 Kristel MERTENS W VET 49:02 0:00 86.57
10 Greet PERSOON W VET 49:21 0:00 86.01
21 Betty DE MEYER W VET 58:34 0:00 72.48
23 Roos VAN BRUGGEN W VET 58:41 0:00 72.33
24 Leen JESPERS W VET 59:47 0:00 71.00
Ellen DESCHEPPER W VET mp 0:00
3 Noor DE MITS W YOUTH -12 32:38 0:00 72.42
5 Juliette VIDAL W YOUTH -12 39:48 0:00 59.38
7 Mara DE CLERCQ W YOUTH -12 45:50 0:01 51.56
8 Lina COOLS W YOUTH -12 53:46 0:01 43.95
9 Lotte VAN BOVEN W YOUTH -16 1:10:09 0:01 41.48
 

Nota: os ficheiros fonte (.csv) são os ficheiros dos resultados fornecidos pela organização, pelo que :
  • O SplitsBrowser pode não conseguir carregar o ficheiro, pois este não está no formato especificado (ex:. ficheiro apenas com tempos totais em vez do ficheiro com todos os splits, etc.)
  • Os resultados presentes nos ficheiros não representam o nº total de atletas que fizeram o percurso/prova, mas apenas o nº de inscrições na prova (ex.: uma inscrição de um grupo pode conter vários atletas)